sensor_id;sensor_type;location;lat;lon;timestamp;temperature;humidity
65472;DHT22;52068;50.710;14.492;2023-04-01T00:00:02;24.36;38.42
65472;DHT22;52068;50.710;14.492;2023-04-01T00:02:27;24.52;38.05
65472;DHT22;52068;50.710;14.492;2023-04-01T00:04:53;24.60;37.98
65472;DHT22;52068;50.710;14.492;2023-04-01T00:07:18;24.60;37.84
65472;DHT22;52068;50.710;14.492;2023-04-01T00:09:43;24.54;37.85
65472;DHT22;52068;50.710;14.492;2023-04-01T00:12:08;24.49;38.08
65472;DHT22;52068;50.710;14.492;2023-04-01T00:14:34;24.39;38.31
65472;DHT22;52068;50.710;14.492;2023-04-01T00:16:59;24.27;38.54
65472;DHT22;52068;50.710;14.492;2023-04-01T00:19:25;24.19;38.79
65472;DHT22;52068;50.710;14.492;2023-04-01T00:21:50;24.08;39.02
65472;DHT22;52068;50.710;14.492;2023-04-01T00:24:17;23.98;39.25
65472;DHT22;52068;50.710;14.492;2023-04-01T00:26:42;23.89;39.44
65472;DHT22;52068;50.710;14.492;2023-04-01T00:29:08;23.79;39.65
65472;DHT22;52068;50.710;14.492;2023-04-01T00:31:34;23.69;39.85
65472;DHT22;52068;50.710;14.492;2023-04-01T00:33:59;23.62;40.03
65472;DHT22;52068;50.710;14.492;2023-04-01T00:36:24;23.52;40.23
65472;DHT22;52068;50.710;14.492;2023-04-01T00:38:50;23.47;40.35
65472;DHT22;52068;50.710;14.492;2023-04-01T00:41:16;23.45;40.48
65472;DHT22;52068;50.710;14.492;2023-04-01T00:43:43;23.66;40.06
65472;DHT22;52068;50.710;14.492;2023-04-01T00:46:09;24.03;39.29
65472;DHT22;52068;50.710;14.492;2023-04-01T00:48:35;24.43;38.50
65472;DHT22;52068;50.710;14.492;2023-04-01T00:51:02;24.77;37.89
65472;DHT22;52068;50.710;14.492;2023-04-01T00:53:29;24.98;37.49
65472;DHT22;52068;50.710;14.492;2023-04-01T00:55:57;25.05;37.13
65472;DHT22;52068;50.710;14.492;2023-04-01T00:58:23;25.04;37.19
65472;DHT22;52068;50.710;14.492;2023-04-01T01:00:49;24.98;37.25
65472;DHT22;52068;50.710;14.492;2023-04-01T01:03:15;24.87;37.45
65472;DHT22;52068;50.710;14.492;2023-04-01T01:05:52;24.78;37.68
65472;DHT22;52068;50.710;14.492;2023-04-01T01:10:44;24.50;38.09
65472;DHT22;52068;50.710;14.492;2023-04-01T01:16:04;24.24;38.61
65472;DHT22;52068;50.710;14.492;2023-04-01T01:26:37;23.79;39.63
65472;DHT22;52068;50.710;14.492;2023-04-01T01:36:46;23.84;39.69
65472;DHT22;52068;50.710;14.492;2023-04-01T01:39:13;24.19;39.01
65472;DHT22;52068;50.710;14.492;2023-04-01T01:41:39;24.57;38.30
65472;DHT22;52068;50.710;14.492;2023-04-01T01:44:08;24.90;37.70
65472;DHT22;52068;50.710;14.492;2023-04-01T01:46:34;25.05;37.23
65472;DHT22;52068;50.710;14.492;2023-04-01T01:49:00;25.10;37.17
65472;DHT22;52068;50.710;14.492;2023-04-01T01:51:27;25.10;37.13
65472;DHT22;52068;50.710;14.492;2023-04-01T01:53:53;25.01;37.31
65472;DHT22;52068;50.710;14.492;2023-04-01T01:56:18;24.85;37.49
65472;DHT22;52068;50.710;14.492;2023-04-01T01:58:45;24.75;37.66
65472;DHT22;52068;50.710;14.492;2023-04-01T02:01:16;24.64;37.93
65472;DHT22;52068;50.710;14.492;2023-04-01T02:03:42;24.50;38.14
65472;DHT22;52068;50.710;14.492;2023-04-01T02:06:10;24.39;38.26
65472;DHT22;52068;50.710;14.492;2023-04-01T02:11:10;24.13;38.80
65472;DHT22;52068;50.710;14.492;2023-04-01T02:13:45;24.02;39.07
65472;DHT22;52068;50.710;14.492;2023-04-01T02:16:23;23.90;39.39
65472;DHT22;52068;50.710;14.492;2023-04-01T02:18:51;23.78;39.53
65472;DHT22;52068;50.710;14.492;2023-04-01T02:21:20;23.72;39.81
65472;DHT22;52068;50.710;14.492;2023-04-01T02:23:45;23.64;39.92
65472;DHT22;52068;50.710;14.492;2023-04-01T02:26:11;23.66;39.87
65472;DHT22;52068;50.710;14.492;2023-04-01T02:28:37;23.89;39.53
65472;DHT22;52068;50.710;14.492;2023-04-01T02:31:03;24.26;38.83
65472;DHT22;52068;50.710;14.492;2023-04-01T02:33:28;24.64;38.13
65472;DHT22;52068;50.710;14.492;2023-04-01T02:35:54;24.92;37.54
65472;DHT22;52068;50.710;14.492;2023-04-01T02:38:20;25.05;37.29
65472;DHT22;52068;50.710;14.492;2023-04-01T02:40:47;25.14;37.09
65472;DHT22;52068;50.710;14.492;2023-04-01T02:43:13;25.12;37.08
65472;DHT22;52068;50.710;14.492;2023-04-01T02:45:38;25.03;37.21
65472;DHT22;52068;50.710;14.492;2023-04-01T02:48:03;24.91;37.32
65472;DHT22;52068;50.710;14.492;2023-04-01T02:50:29;24.80;37.57
65472;DHT22;52068;50.710;14.492;2023-04-01T02:52:54;24.65;37.74
65472;DHT22;52068;50.710;14.492;2023-04-01T02:55:19;24.56;38.00
65472;DHT22;52068;50.710;14.492;2023-04-01T02:57:45;24.41;38.26
65472;DHT22;52068;50.710;14.492;2023-04-01T03:00:10;24.27;38.45
65472;DHT22;52068;50.710;14.492;2023-04-01T03:02:37;24.17;38.70
65472;DHT22;52068;50.710;14.492;2023-04-01T03:05:02;24.05;39.06
65472;DHT22;52068;50.710;14.492;2023-04-01T03:07:28;23.95;39.28
65472;DHT22;52068;50.710;14.492;2023-04-01T03:09:53;23.84;39.34
65472;DHT22;52068;50.710;14.492;2023-04-01T03:12:18;23.74;39.57
65472;DHT22;52068;50.710;14.492;2023-04-01T03:14:43;23.68;39.79
65472;DHT22;52068;50.710;14.492;2023-04-01T03:17:09;23.82;39.55
65472;DHT22;52068;50.710;14.492;2023-04-01T03:19:34;24.23;38.89
65472;DHT22;52068;50.710;14.492;2023-04-01T03:21:59;24.67;38.09
65472;DHT22;52068;50.710;14.492;2023-04-01T03:24:24;25.14;37.22
65472;DHT22;52068;50.710;14.492;2023-04-01T03:26:50;25.53;36.55
65472;DHT22;52068;50.710;14.492;2023-04-01T03:29:15;25.77;36.15
65472;DHT22;52068;50.710;14.492;2023-04-01T03:31:41;25.90;35.88
65472;DHT22;52068;50.710;14.492;2023-04-01T03:34:06;25.93;35.76
65472;DHT22;52068;50.710;14.492;2023-04-01T03:36:31;25.92;35.74
65472;DHT22;52068;50.710;14.492;2023-04-01T03:38:57;25.84;35.79
65472;DHT22;52068;50.710;14.492;2023-04-01T03:41:22;25.75;35.92
65472;DHT22;52068;50.710;14.492;2023-04-01T03:43:47;25.58;36.19
65472;DHT22;52068;50.710;14.492;2023-04-01T03:46:16;25.41;36.34
65472;DHT22;52068;50.710;14.492;2023-04-01T03:48:42;25.24;36.62
65472;DHT22;52068;50.710;14.492;2023-04-01T03:51:07;25.08;36.95
65472;DHT22;52068;50.710;14.492;2023-04-01T03:53:33;24.92;37.24
65472;DHT22;52068;50.710;14.492;2023-04-01T03:55:58;24.73;37.59
65472;DHT22;52068;50.710;14.492;2023-04-01T03:58:27;24.57;37.88
65472;DHT22;52068;50.710;14.492;2023-04-01T04:00:55;24.46;38.09
65472;DHT22;52068;50.710;14.492;2023-04-01T04:03:20;24.32;38.40
65472;DHT22;52068;50.710;14.492;2023-04-01T04:05:46;24.17;38.68
65472;DHT22;52068;50.710;14.492;2023-04-01T04:08:11;24.06;38.88
65472;DHT22;52068;50.710;14.492;2023-04-01T04:10:37;23.95;39.08
65472;DHT22;52068;50.710;14.492;2023-04-01T04:13:02;23.93;39.20
65472;DHT22;52068;50.710;14.492;2023-04-01T04:15:27;24.02;39.05
65472;DHT22;52068;50.710;14.492;2023-04-01T04:17:52;24.17;38.71
65472;DHT22;52068;50.710;14.492;2023-04-01T04:20:18;24.46;38.36
65472;DHT22;52068;50.710;14.492;2023-04-01T04:22:43;24.67;37.85
65472;DHT22;52068;50.710;14.492;2023-04-01T04:25:08;24.75;37.62
65472;DHT22;52068;50.710;14.492;2023-04-01T04:27:33;24.80;37.57
65472;DHT22;52068;50.710;14.492;2023-04-01T04:29:59;24.74;37.55
65472;DHT22;52068;50.710;14.492;2023-04-01T04:32:24;24.68;37.74
65472;DHT22;52068;50.710;14.492;2023-04-01T04:34:50;24.59;37.81
65472;DHT22;52068;50.710;14.492;2023-04-01T04:37:15;24.46;38.01
65472;DHT22;52068;50.710;14.492;2023-04-01T04:39:40;24.39;38.20
65472;DHT22;52068;50.710;14.492;2023-04-01T04:42:05;24.27;38.50
65472;DHT22;52068;50.710;14.492;2023-04-01T04:44:31;24.15;38.76
65472;DHT22;52068;50.710;14.492;2023-04-01T04:46:56;24.03;38.98
65472;DHT22;52068;50.710;14.492;2023-04-01T04:49:21;23.95;39.10
65472;DHT22;52068;50.710;14.492;2023-04-01T04:51:47;23.85;39.36
65472;DHT22;52068;50.710;14.492;2023-04-01T04:54:13;23.75;39.64
65472;DHT22;52068;50.710;14.492;2023-04-01T04:56:38;23.65;39.80
65472;DHT22;52068;50.710;14.492;2023-04-01T04:59:03;23.57;39.95
65472;DHT22;52068;50.710;14.492;2023-04-01T05:01:29;23.55;40.08
65472;DHT22;52068;50.710;14.492;2023-04-01T05:03:54;23.71;39.84
65472;DHT22;52068;50.710;14.492;2023-04-01T05:06:19;24.05;39.12
65472;DHT22;52068;50.710;14.492;2023-04-01T05:08:45;24.47;38.38
65472;DHT22;52068;50.710;14.492;2023-04-01T05:11:17;24.81;37.74
65472;DHT22;52068;50.710;14.492;2023-04-01T05:13:43;25.08;37.18
65472;DHT22;52068;50.710;14.492;2023-04-01T05:16:12;25.19;36.91
65472;DHT22;52068;50.710;14.492;2023-04-01T05:18:38;25.18;36.85
65472;DHT22;52068;50.710;14.492;2023-04-01T05:21:03;25.12;37.00
65472;DHT22;52068;50.710;14.492;2023-04-01T05:23:30;25.01;37.10
65472;DHT22;52068;50.710;14.492;2023-04-01T05:25:55;24.90;37.26
65472;DHT22;52068;50.710;14.492;2023-04-01T05:28:22;24.77;37.55
65472;DHT22;52068;50.710;14.492;2023-04-01T05:30:47;24.65;37.66
65472;DHT22;52068;50.710;14.492;2023-04-01T05:33:12;24.49;38.03
65472;DHT22;52068;50.710;14.492;2023-04-01T05:35:38;24.36;38.25
65472;DHT22;52068;50.710;14.492;2023-04-01T05:38:03;24.24;38.49
65472;DHT22;52068;50.710;14.492;2023-04-01T05:40:29;24.13;38.82
65472;DHT22;52068;50.710;14.492;2023-04-01T05:42:54;24.01;39.03
65472;DHT22;52068;50.710;14.492;2023-04-01T05:45:20;23.90;39.14
65472;DHT22;52068;50.710;14.492;2023-04-01T05:47:45;23.78;39.51
65472;DHT22;52068;50.710;14.492;2023-04-01T05:50:11;23.72;39.64
65472;DHT22;52068;50.710;14.492;2023-04-01T05:52:36;23.68;39.81
65472;DHT22;52068;50.710;14.492;2023-04-01T05:55:02;23.68;39.79
65472;DHT22;52068;50.710;14.492;2023-04-01T05:57:27;23.89;39.50
65472;DHT22;52068;50.710;14.492;2023-04-01T05:59:52;24.20;38.91
65472;DHT22;52068;50.710;14.492;2023-04-01T06:02:18;24.52;38.20
65472;DHT22;52068;50.710;14.492;2023-04-01T06:04:43;24.74;37.75
65472;DHT22;52068;50.710;14.492;2023-04-01T06:07:18;24.87;37.55
65472;DHT22;52068;50.710;14.492;2023-04-01T06:09:43;24.91;37.43
65472;DHT22;52068;50.710;14.492;2023-04-01T06:12:22;24.87;37.48
65472;DHT22;52068;50.710;14.492;2023-04-01T06:17:19;24.65;37.85
65472;DHT22;52068;50.710;14.492;2023-04-01T06:25:12;24.26;38.51
65472;DHT22;52068;50.710;14.492;2023-04-01T06:37:47;23.78;39.69
65472;DHT22;52068;50.710;14.492;2023-04-01T06:40:25;23.65;39.92
65472;DHT22;52068;50.710;14.492;2023-04-01T06:43:06;23.59;40.00
65472;DHT22;52068;50.710;14.492;2023-04-01T06:45:43;23.61;40.19
65472;DHT22;52068;50.710;14.492;2023-04-01T07:01:04;25.07;37.33
65472;DHT22;52068;50.710;14.492;2023-04-01T07:03:45;25.08;37.31
65472;DHT22;52068;50.710;14.492;2023-04-01T07:06:20;24.98;37.42
65472;DHT22;52068;50.710;14.492;2023-04-01T07:08:48;24.90;37.50
65472;DHT22;52068;50.710;14.492;2023-04-01T07:11:33;24.80;37.69
65472;DHT22;52068;50.710;14.492;2023-04-01T07:17:11;24.53;38.14
65472;DHT22;52068;50.710;14.492;2023-04-01T07:21:57;24.26;38.62
65472;DHT22;52068;50.710;14.492;2023-04-01T07:24:32;24.15;38.87
65472;DHT22;52068;50.710;14.492;2023-04-01T07:26:58;24.05;39.03
65472;DHT22;52068;50.710;14.492;2023-04-01T07:29:23;23.93;39.22
65472;DHT22;52068;50.710;14.492;2023-04-01T07:34:43;23.75;39.70
65472;DHT22;52068;50.710;14.492;2023-04-01T07:37:52;23.65;39.85
65472;DHT22;52068;50.710;14.492;2023-04-01T07:47:34;24.43;38.50
65472;DHT22;52068;50.710;14.492;2023-04-01T07:57:55;24.99;37.18
65472;DHT22;52068;50.710;14.492;2023-04-01T08:03:43;24.83;37.42
65472;DHT22;52068;50.710;14.492;2023-04-01T08:20:11;24.12;38.98
65472;DHT22;52068;50.710;14.492;2023-04-01T08:22:42;23.98;39.16
65472;DHT22;52068;50.710;14.492;2023-04-01T08:25:13;23.89;39.34
65472;DHT22;52068;50.710;14.492;2023-04-01T08:27:39;23.79;39.62
65472;DHT22;52068;50.710;14.492;2023-04-01T08:30:19;23.69;39.87
65472;DHT22;52068;50.710;14.492;2023-04-01T08:32:51;23.64;39.97
65472;DHT22;52068;50.710;14.492;2023-04-01T08:35:30;23.65;39.92
65472;DHT22;52068;50.710;14.492;2023-04-01T08:37:57;23.86;39.63
65472;DHT22;52068;50.710;14.492;2023-04-01T08:45:50;24.77;37.82
65472;DHT22;52068;50.710;14.492;2023-04-01T08:48:32;24.92;37.60
65472;DHT22;52068;50.710;14.492;2023-04-01T08:56:33;24.80;37.67
65472;DHT22;52068;50.710;14.492;2023-04-01T08:59:09;24.65;37.86
65472;DHT22;52068;50.710;14.492;2023-04-01T09:17:38;23.93;39.37
65472;DHT22;52068;50.710;14.492;2023-04-01T09:27:26;23.72;39.82
65472;DHT22;52068;50.710;14.492;2023-04-01T09:30:10;23.85;39.37
65472;DHT22;52068;50.710;14.492;2023-04-01T09:46:12;24.83;37.80
65472;DHT22;52068;50.710;14.492;2023-04-01T09:54:10;24.59;38.04
65472;DHT22;52068;50.710;14.492;2023-04-01T10:21:53;23.99;38.98
65472;DHT22;52068;50.710;14.492;2023-04-01T10:24:30;24.29;38.37
65472;DHT22;52068;50.710;14.492;2023-04-01T10:42:20;24.91;37.33
65472;DHT22;52068;50.710;14.492;2023-04-01T10:47:39;24.70;37.84
65472;DHT22;52068;50.710;14.492;2023-04-01T11:11:47;23.85;39.21
65472;DHT22;52068;50.710;14.492;2023-04-01T11:19:37;24.36;38.14
65472;DHT22;52068;50.710;14.492;2023-04-01T11:22:10;24.46;37.66
65472;DHT22;52068;50.710;14.492;2023-04-01T11:35:27;24.33;38.19
65472;DHT22;52068;50.710;14.492;2023-04-01T11:40:42;24.12;38.65
65472;DHT22;52068;50.710;14.492;2023-04-01T11:55:46;23.64;39.80
65472;DHT22;52068;50.710;14.492;2023-04-01T12:05:58;23.82;39.58
65472;DHT22;52068;50.710;14.492;2023-04-01T12:18:25;24.84;37.57
65472;DHT22;52068;50.710;14.492;2023-04-01T12:20:57;24.83;37.57
65472;DHT22;52068;50.710;14.492;2023-04-01T12:23:30;24.80;37.64
65472;DHT22;52068;50.710;14.492;2023-04-01T12:26:05;24.73;37.74
65472;DHT22;52068;50.710;14.492;2023-04-01T12:45:03;24.12;38.83
65472;DHT22;52068;50.710;14.492;2023-04-01T12:47:37;24.06;38.92
65472;DHT22;52068;50.710;14.492;2023-04-01T12:55:29;23.96;39.23
65472;DHT22;52068;50.710;14.492;2023-04-01T13:10:49;24.61;37.94
65472;DHT22;52068;50.710;14.492;2023-04-01T13:13:22;24.60;37.94
65472;DHT22;52068;50.710;14.492;2023-04-01T13:16:27;24.54;38.05
65472;DHT22;52068;50.710;14.492;2023-04-01T13:21:53;24.40;38.30
65472;DHT22;52068;50.710;14.492;2023-04-01T13:24:24;24.30;38.37
65472;DHT22;52068;50.710;14.492;2023-04-01T13:29:20;24.19;38.71
65472;DHT22;52068;50.710;14.492;2023-04-01T13:39:24;23.89;39.28
65472;DHT22;52068;50.710;14.492;2023-04-01T13:42:05;23.86;39.40
65472;DHT22;52068;50.710;14.492;2023-04-01T13:47:43;23.86;39.49
65472;DHT22;52068;50.710;14.492;2023-04-01T13:55:01;24.63;38.00
65472;DHT22;52068;50.710;14.492;2023-04-01T14:02:46;24.91;37.30
65472;DHT22;52068;50.710;14.492;2023-04-01T14:20:39;24.26;38.69
65472;DHT22;52068;50.710;14.492;2023-04-01T14:23:11;24.17;38.88
65472;DHT22;52068;50.710;14.492;2023-04-01T14:25:46;24.16;38.94
65472;DHT22;52068;50.710;14.492;2023-04-01T14:46:27;24.26;39.05
65472;DHT22;52068;50.710;14.492;2023-04-01T14:49:02;24.40;38.77
65472;DHT22;52068;50.710;14.492;2023-04-01T14:56:36;24.61;38.32
65472;DHT22;52068;50.710;14.492;2023-04-01T14:59:01;24.63;38.27
65472;DHT22;52068;50.710;14.492;2023-04-01T15:01:42;24.60;38.32
65472;DHT22;52068;50.710;14.492;2023-04-01T15:07:00;24.50;38.52
65472;DHT22;52068;50.710;14.492;2023-04-01T15:11:56;24.34;38.77
65472;DHT22;52068;50.710;14.492;2023-04-01T15:27:15;23.76;39.88
65472;DHT22;52068;50.710;14.492;2023-04-01T15:32:46;23.69;40.08
65472;DHT22;52068;50.710;14.492;2023-04-01T15:35:25;23.75;40.01
65472;DHT22;52068;50.710;14.492;2023-04-01T15:40:37;24.12;39.41
65472;DHT22;52068;50.710;14.492;2023-04-01T15:43:22;24.29;39.07
65472;DHT22;52068;50.710;14.492;2023-04-01T15:48:47;24.37;38.84
65472;DHT22;52068;50.710;14.492;2023-04-01T15:51:17;24.37;38.87
65472;DHT22;52068;50.710;14.492;2023-04-01T15:56:18;24.27;39.03
65472;DHT22;52068;50.710;14.492;2023-04-01T15:59:06;24.20;39.13
65472;DHT22;52068;50.710;14.492;2023-04-01T16:01:56;24.13;39.30
65472;DHT22;52068;50.710;14.492;2023-04-01T16:07:26;23.96;39.63
65472;DHT22;52068;50.710;14.492;2023-04-01T16:09:59;23.86;39.78
65472;DHT22;52068;50.710;14.492;2023-04-01T16:20:41;23.62;40.35
65472;DHT22;52068;50.710;14.492;2023-04-01T16:23:22;23.61;40.51
65472;DHT22;52068;50.710;14.492;2023-04-01T16:31:12;24.12;39.54
65472;DHT22;52068;50.710;14.492;2023-04-01T16:38:41;24.59;38.49
65472;DHT22;52068;50.710;14.492;2023-04-01T16:41:16;24.61;38.42
65472;DHT22;52068;50.710;14.492;2023-04-01T16:43:45;24.56;38.52
65472;DHT22;52068;50.710;14.492;2023-04-01T16:49:00;24.44;38.71
65472;DHT22;52068;50.710;14.492;2023-04-01T16:51:30;24.34;38.80
65472;DHT22;52068;50.710;14.492;2023-04-01T16:54:05;24.24;38.98
65472;DHT22;52068;50.710;14.492;2023-04-01T16:56:42;24.16;39.24
65472;DHT22;52068;50.710;14.492;2023-04-01T16:59:17;24.06;39.38
65472;DHT22;52068;50.710;14.492;2023-04-01T17:04:31;23.90;39.69
65472;DHT22;52068;50.710;14.492;2023-04-01T17:09:48;23.79;40.01
65472;DHT22;52068;50.710;14.492;2023-04-01T17:12:18;23.72;40.21
65472;DHT22;52068;50.710;14.492;2023-04-01T17:17:17;23.81;40.14
65472;DHT22;52068;50.710;14.492;2023-04-01T17:20:03;24.09;39.55
65472;DHT22;52068;50.710;14.492;2023-04-01T17:22:33;24.50;38.81
65472;DHT22;52068;50.710;14.492;2023-04-01T17:35:11;25.32;37.08
65472;DHT22;52068;50.710;14.492;2023-04-01T17:37:46;25.21;37.18
65472;DHT22;52068;50.710;14.492;2023-04-01T17:40:24;25.10;37.46
65472;DHT22;52068;50.710;14.492;2023-04-01T17:48:01;24.74;38.12
65472;DHT22;52068;50.710;14.492;2023-04-01T18:08:11;24.01;39.74
65472;DHT22;52068;50.710;14.492;2023-04-01T18:10:40;23.95;39.87
65472;DHT22;52068;50.710;14.492;2023-04-01T18:15:42;24.02;39.78
65472;DHT22;52068;50.710;14.492;2023-04-01T18:20:56;24.32;39.17
65472;DHT22;52068;50.710;14.492;2023-04-01T18:23:26;24.41;38.97
65472;DHT22;52068;50.710;14.492;2023-04-01T18:25:53;24.49;38.82
65472;DHT22;52068;50.710;14.492;2023-04-01T18:36:24;24.22;39.27
65472;DHT22;52068;50.710;14.492;2023-04-01T18:42:29;24.03;39.60
65472;DHT22;52068;50.710;14.492;2023-04-01T18:46:57;23.85;40.13
65472;DHT22;52068;50.710;14.492;2023-04-01T18:52:13;23.71;40.49
65472;DHT22;52068;50.710;14.492;2023-04-01T18:57:25;23.52;40.75
65472;DHT22;52068;50.710;14.492;2023-04-01T19:00:03;23.50;40.87
65472;DHT22;52068;50.710;14.492;2023-04-01T19:02:36;23.50;40.89
65472;DHT22;52068;50.710;14.492;2023-04-01T19:10:21;24.13;39.65
65472;DHT22;52068;50.710;14.492;2023-04-01T19:17:48;24.52;38.81
65472;DHT22;52068;50.710;14.492;2023-04-01T19:25:51;24.36;39.08
65472;DHT22;52068;50.710;14.492;2023-04-01T19:43:51;23.74;40.45
65472;DHT22;52068;50.710;14.492;2023-04-01T19:46:32;23.65;40.57
65472;DHT22;52068;50.710;14.492;2023-04-01T19:54:24;23.52;40.90
65472;DHT22;52068;50.710;14.492;2023-04-01T19:59:31;23.95;40.15
65472;DHT22;52068;50.710;14.492;2023-04-01T20:04:43;24.54;38.82
65472;DHT22;52068;50.710;14.492;2023-04-01T20:07:21;24.71;38.55
65472;DHT22;52068;50.710;14.492;2023-04-01T20:15:22;24.64;38.63
65472;DHT22;52068;50.710;14.492;2023-04-01T20:17:52;24.56;38.72
65472;DHT22;52068;50.710;14.492;2023-04-01T20:20:19;24.46;38.88
65472;DHT22;52068;50.710;14.492;2023-04-01T20:23:02;24.36;39.16
65472;DHT22;52068;50.710;14.492;2023-04-01T20:25:30;24.23;39.34
65472;DHT22;52068;50.710;14.492;2023-04-01T20:41:12;23.68;40.51
65472;DHT22;52068;50.710;14.492;2023-04-01T20:43:57;23.61;40.65
65472;DHT22;52068;50.710;14.492;2023-04-01T20:46:33;23.55;40.84
65472;DHT22;52068;50.710;14.492;2023-04-01T20:51:59;23.65;40.68
65472;DHT22;52068;50.710;14.492;2023-04-01T20:59:55;24.34;39.27
65472;DHT22;52068;50.710;14.492;2023-04-01T21:28:34;23.69;40.48
65472;DHT22;52068;50.710;14.492;2023-04-01T21:31:02;23.65;40.63
65472;DHT22;52068;50.710;14.492;2023-04-01T21:36:20;23.52;40.90
65472;DHT22;52068;50.710;14.492;2023-04-01T21:38:53;23.45;41.12
65472;DHT22;52068;50.710;14.492;2023-04-01T21:44:24;23.55;40.88
65472;DHT22;52068;50.710;14.492;2023-04-01T22:00:07;24.49;38.88
65472;DHT22;52068;50.710;14.492;2023-04-01T22:03:41;24.39;38.94
65472;DHT22;52068;50.710;14.492;2023-04-01T22:05:36;24.32;39.16
65472;DHT22;52068;50.710;14.492;2023-04-01T22:13:20;24.01;39.82
65472;DHT22;52068;50.710;14.492;2023-04-01T22:15:59;23.92;40.00
65472;DHT22;52068;50.710;14.492;2023-04-01T22:18:38;23.82;40.25
65472;DHT22;52068;50.710;14.492;2023-04-01T22:31:27;23.43;41.09
65472;DHT22;52068;50.710;14.492;2023-04-01T22:36:24;23.69;40.51
65472;DHT22;52068;50.710;14.492;2023-04-01T22:42:15;24.43;39.02
65472;DHT22;52068;50.710;14.492;2023-04-01T22:44:39;24.70;38.45
65472;DHT22;52068;50.710;14.492;2023-04-01T22:47:21;24.83;38.16
65472;DHT22;52068;50.710;14.492;2023-04-01T22:52:33;24.73;38.26
65472;DHT22;52068;50.710;14.492;2023-04-01T22:55:02;24.63;38.45
65472;DHT22;52068;50.710;14.492;2023-04-01T22:57:40;24.53;38.58
65472;DHT22;52068;50.710;14.492;2023-04-01T23:00:08;24.46;38.90
65472;DHT22;52068;50.710;14.492;2023-04-01T23:02:36;24.27;39.12
65472;DHT22;52068;50.710;14.492;2023-04-01T23:05:02;24.20;39.47
65472;DHT22;52068;50.710;14.492;2023-04-01T23:09:57;23.96;39.84
65472;DHT22;52068;50.710;14.492;2023-04-01T23:12:23;23.88;40.03
65472;DHT22;52068;50.710;14.492;2023-04-01T23:14:51;23.79;40.25
65472;DHT22;52068;50.710;14.492;2023-04-01T23:20:00;23.64;40.66
65472;DHT22;52068;50.710;14.492;2023-04-01T23:22:35;23.57;40.77
65472;DHT22;52068;50.710;14.492;2023-04-01T23:27:39;23.57;40.74
65472;DHT22;52068;50.710;14.492;2023-04-01T23:30:24;23.81;40.28
65472;DHT22;52068;50.710;14.492;2023-04-01T23:32:51;24.20;39.52
65472;DHT22;52068;50.710;14.492;2023-04-01T23:35:16;24.52;38.87
65472;DHT22;52068;50.710;14.492;2023-04-01T23:37:41;24.74;38.42
65472;DHT22;52068;50.710;14.492;2023-04-01T23:40:10;24.85;38.19
65472;DHT22;52068;50.710;14.492;2023-04-01T23:42:39;24.88;38.05
65472;DHT22;52068;50.710;14.492;2023-04-01T23:45:11;24.78;38.09
65472;DHT22;52068;50.710;14.492;2023-04-01T23:47:38;24.71;38.20
65472;DHT22;52068;50.710;14.492;2023-04-01T23:50:11;24.59;38.43
65472;DHT22;52068;50.710;14.492;2023-04-01T23:52:47;24.49;38.57
65472;DHT22;52068;50.710;14.492;2023-04-01T23:55:24;24.36;38.84
